Danville, IN

2:00 AM EDT on April 29, 2017 (GMT -0400)
Vermilion County

Weather History for KDNV - November, 2012

Change the Weather History Date:

Friday, November 9, 2012

  Actual Average (KLAF) Record (KLAF)
Temperature  
Mean Temperature 48 °F -  
Max Temperature 61 °F 55 °F 74 °F (1975)
Min Temperature 34 °F 37 °F 12 °F (1991)
Degree Days  
Heating Degree Days 18    
Moisture  
Dew Point 40 °F    
Average Humidity 75    
Maximum Humidity 95    
Minimum Humidity 55    
Precipitation  
Precipitation 0.00 in - - ()
Sea Level Pressure  
Sea Level Pressure 30.04 in    
Wind  
Wind Speed 7 mph (SSE)    
Max Wind Speed 17 mph    
Max Gust Speed 21 mph    
Visibility 7 miles    
Events      
Averages and records for this station are not official NWS values.
T = Trace of Precipitation, MM = Missing Value Source: NWS Daily Summary

Daily Weather History Graph

Daily Weather History Graph

Search for Another Location

Airport or City:

Trip Planner

Search our weather history database for the weather conditions in past years. The results will help you decide how hot, cold, wet, or windy it might be!

Date:

Astronomy

Nov. 09, 2012 Rise Set
Actual Time 6:29 AM CST 4:38 PM CST
Civil Twilight 6:00 AM CST 5:07 PM CST
Nautical Twilight 5:28 AM CST 5:39 PM CST
Astronomical Twilight 4:56 AM CST 6:11 PM CST
Moon 1:27 AM CST (11/9) 1:51 PM CST (11/9)
Length of Visible Light 11h 06m
Length of Day
10h 08m
Waning Crescent, 23% of the Moon is Illuminated
Nov 9
Waning Crescent
Nov 13
New
Nov 20
First Quarter
Nov 28
Full
Dec 6
Last Quarter

Hourly Weather History & Observations

Time (CST) Temp. Windchill Dew Point Humidity Pressure Visibility Wind Dir Wind Speed Gust Speed Precip Events Conditions
12:15 AM 35.1 °F 32.2 °F 33.1 °F 92% 30.10 in 4.0 mi SE 3.5 mph - N/A   Clear
12:35 AM 34.9 °F 30.8 °F 33.1 °F 93% 30.09 in 4.0 mi SE 4.6 mph - N/A   Clear
12:55 AM 34.5 °F 30.4 °F 32.9 °F 94% 30.09 in 3.0 mi SE 4.6 mph - N/A   Clear
1:15 AM 34.3 °F 31.4 °F 32.9 °F 94% 30.10 in 3.0 mi SE 3.5 mph - N/A   Clear
1:35 AM 34.2 °F 31.2 °F 32.9 °F 95% 30.10 in 3.0 mi SSE 3.5 mph - N/A   Clear
1:55 AM 34.7 °F 31.8 °F 33.3 °F 94% 30.11 in 3.0 mi SSE 3.5 mph - N/A   Clear
2:15 AM 35.1 °F 32.2 °F 33.3 °F 93% 30.11 in 4.0 mi SSE 3.5 mph - N/A   Clear
2:35 AM 36.1 °F 32.3 °F 34.0 °F 92% 30.11 in 4.0 mi SSE 4.6 mph - N/A   Clear
2:55 AM 35.1 °F 31.0 °F 32.9 °F 92% 30.11 in 4.0 mi SSE 4.6 mph - N/A   Clear
3:15 AM 34.9 °F 29.9 °F 33.1 °F 93% 30.10 in 4.0 mi SSE 5.8 mph - N/A   Clear
3:35 AM 35.6 °F 31.7 °F 33.6 °F 92% 30.10 in 4.0 mi SSE 4.6 mph - N/A   Clear
3:55 AM 35.2 °F 30.3 °F 33.4 °F 93% 30.10 in 3.0 mi SE 5.8 mph - N/A   Clear
4:15 AM 35.2 °F 30.3 °F 33.4 °F 93% 30.11 in 3.0 mi SE 5.8 mph - N/A   Clear
4:35 AM 34.9 °F 29.9 °F 33.3 °F 94% 30.11 in 3.0 mi SE 5.8 mph - N/A   Clear
4:55 AM 35.2 °F 31.2 °F 33.6 °F 94% 30.10 in 3.0 mi SSE 4.6 mph - N/A   Clear
5:15 AM 35.6 °F 30.7 °F 33.8 °F 93% 30.10 in 3.0 mi SE 5.8 mph - N/A   Clear
5:35 AM 35.6 °F 30.7 °F 33.8 °F 93% 30.10 in 3.0 mi SE 5.8 mph - N/A   Clear
5:55 AM 35.8 °F 30.1 °F 33.8 °F 92% 30.10 in 4.0 mi SSE 6.9 mph - N/A   Clear
6:15 AM 35.6 °F 30.7 °F 33.8 °F 93% 30.10 in 3.0 mi SSE 5.8 mph - N/A   Clear
6:35 AM 35.2 °F 30.3 °F 33.4 °F 93% 30.10 in 2.0 mi SE 5.8 mph - N/A   Clear
6:55 AM 35.8 °F 31.9 °F 34.0 °F 93% 30.11 in 2.5 mi SSE 4.6 mph - N/A   Clear
7:15 AM 36.9 °F 34.3 °F 34.7 °F 92% 30.11 in 3.0 mi SE 3.5 mph - N/A   Clear
7:35 AM 38.5 °F 34.1 °F 35.6 °F 89% 30.11 in 3.0 mi SSE 5.8 mph - N/A   Clear
7:55 AM 39.9 °F 34.5 °F 36.7 °F 88% 30.10 in 4.0 mi SE 8.1 mph - N/A   Clear
8:15 AM 41.7 °F 36.7 °F 37.8 °F 86% 30.10 in 4.0 mi SSE 8.1 mph - N/A   Clear
8:35 AM 44.1 °F 38.6 °F 39.0 °F 82% 30.10 in 4.0 mi SSE 10.4 mph - N/A   Haze
8:55 AM 45.9 °F 41.7 °F 39.9 °F 80% 30.10 in 5.0 mi SSE 8.1 mph - N/A   Haze
9:15 AM 49.6 °F - 41.0 °F 72% 30.09 in 7.0 mi South 12.7 mph - N/A   Clear
9:35 AM 51.3 °F - 40.6 °F 67% 30.08 in 7.0 mi South 13.8 mph - N/A   Clear
9:55 AM 52.0 °F - 41.0 °F 66% 30.07 in 10.0 mi South 16.1 mph 20.7 mph N/A   Clear
10:15 AM 52.7 °F - 41.0 °F 64% 30.06 in 7.0 mi South 13.8 mph - N/A   Clear
10:35 AM 53.8 °F - 41.5 °F 63% 30.07 in 10.0 mi SSW 17.3 mph - N/A   Clear
10:55 AM 54.5 °F - 42.4 °F 64% 30.06 in 7.0 mi South 13.8 mph - N/A   Clear
11:15 AM 56.3 °F - 42.8 °F 61% 30.04 in 7.0 mi South 15.0 mph 20.7 mph N/A   Clear
11:35 AM 56.8 °F - 43.2 °F 60% 30.03 in 7.0 mi South 11.5 mph - N/A   Clear
11:55 AM 57.9 °F - 43.3 °F 58% 30.02 in 7.0 mi South 16.1 mph 20.7 mph N/A   Clear
12:15 PM 58.6 °F - 43.5 °F 57% 30.02 in 10.0 mi South 15.0 mph - N/A   Clear
12:35 PM 59.7 °F - 43.9 °F 56% 30.01 in 10.0 mi SSW 15.0 mph - N/A   Clear
12:55 PM 59.4 °F - 44.2 °F 57% 30.01 in 10.0 mi South 13.8 mph - N/A   Mostly Cloudy
1:15 PM 59.4 °F - 44.6 °F 58% 30.00 in 10.0 mi South 12.7 mph - N/A   Overcast
1:35 PM 61.0 °F - 45.0 °F 56% 29.99 in 10.0 mi South 17.3 mph 20.7 mph N/A   Scattered Clouds
1:55 PM 60.8 °F - 45.1 °F 56% 29.99 in 10.0 mi South 15.0 mph - N/A   Scattered Clouds
2:15 PM 61.0 °F - 45.5 °F 57% 29.98 in 10.0 mi South 9.2 mph 19.6 mph N/A   Clear
2:35 PM 61.3 °F - 45.5 °F 56% 29.98 in 10.0 mi South 9.2 mph - N/A   Clear
2:55 PM 60.8 °F - 45.7 °F 57% 29.97 in 10.0 mi SSE 10.4 mph 17.3 mph N/A   Clear
3:15 PM 61.7 °F - 45.5 °F 55% 29.97 in 10.0 mi South 10.4 mph 18.4 mph N/A   Clear
3:35 PM 60.8 °F - 45.1 °F 56% 29.96 in 10.0 mi South 16.1 mph - N/A   Clear
3:55 PM 59.4 °F - 45.5 °F 60% 29.96 in 10.0 mi South 12.7 mph - N/A   Clear
4:15 PM 59.2 °F - 45.1 °F 60% 29.96 in 10.0 mi South 12.7 mph 17.3 mph N/A   Clear
4:35 PM 58.3 °F - 44.6 °F 60% 29.96 in 10.0 mi SSE 9.2 mph - N/A   Clear
4:55 PM 57.6 °F - 44.4 °F 62% 29.96 in 10.0 mi SSE 9.2 mph - N/A   Clear
5:15 PM 56.1 °F - 44.6 °F 65% 29.97 in 10.0 mi SE 10.4 mph - N/A   Clear
5:35 PM 54.7 °F - 44.6 °F 69% 29.97 in 10.0 mi SE 8.1 mph - N/A   Clear
5:55 PM 53.8 °F - 44.2 °F 70% 29.98 in 10.0 mi SE 8.1 mph - N/A   Clear
6:15 PM 52.7 °F - 44.1 °F 72% 29.97 in 10.0 mi SE 6.9 mph - N/A   Clear
6:35 PM 51.8 °F - 43.7 °F 74% 29.97 in 10.0 mi SE 6.9 mph - N/A   Clear
6:55 PM 51.8 °F - 43.7 °F 74% 29.97 in 10.0 mi SE 6.9 mph - N/A   Clear
7:15 PM 52.3 °F - 43.7 °F 72% 29.97 in 10.0 mi SE 6.9 mph - N/A   Clear
7:35 PM 51.8 °F - 44.6 °F 76% 29.97 in 10.0 mi SE 8.1 mph - N/A   Clear
7:55 PM 51.8 °F - 43.3 °F 73% 29.97 in 10.0 mi SSE 5.8 mph - N/A   Clear
8:15 PM 51.6 °F - 43.2 °F 73% 29.97 in 10.0 mi SSE 6.9 mph - N/A   Clear
8:35 PM 50.9 °F - 42.8 °F 74% 29.98 in 10.0 mi SSE 5.8 mph - N/A   Clear
8:55 PM 51.8 °F - 43.0 °F 72% 29.98 in 10.0 mi SSE 6.9 mph - N/A   Clear
9:15 PM 51.6 °F - 42.8 °F 72% 29.98 in 10.0 mi SE 5.8 mph - N/A   Clear
9:35 PM 50.9 °F - 42.4 °F 73% 29.98 in 10.0 mi SE 4.6 mph - N/A   Clear
9:55 PM 50.9 °F - 42.3 °F 72% 29.98 in 10.0 mi SE 4.6 mph - N/A   Clear
10:15 PM 50.4 °F - 42.3 °F 74% 29.98 in 10.0 mi SSE 4.6 mph - N/A   Clear
10:35 PM 51.8 °F - 42.4 °F 70% 29.98 in 10.0 mi South 4.6 mph - N/A   Clear
10:55 PM 52.9 °F - 43.5 °F 71% 29.98 in 10.0 mi South 8.1 mph - N/A   Clear
11:15 PM 53.6 °F - 43.9 °F 70% 29.98 in 10.0 mi South 8.1 mph - N/A   Clear
11:35 PM 54.5 °F - 44.2 °F 68% 29.99 in 10.0 mi South 8.1 mph - N/A   Clear
11:55 PM 54.7 °F - 44.8 °F 69% 30.00 in 10.0 mi South 11.5 mph - N/A   Clear